sensor_id;sensor_type;location;lat;lon;timestamp;P1;durP1;ratioP1;P2;durP2;ratioP2
30462;SDS011;17256;43.618;25.336;2023-11-19T00:01:40;1.13;;;0.93;;
30462;SDS011;17256;43.618;25.336;2023-11-19T00:04:05;1.23;;;1.13;;
30462;SDS011;17256;43.618;25.336;2023-11-19T00:06:31;1.43;;;1.00;;
30462;SDS011;17256;43.618;25.336;2023-11-19T00:08:56;1.73;;;1.30;;
30462;SDS011;17256;43.618;25.336;2023-11-19T00:11:22;1.20;;;1.10;;
30462;SDS011;17256;43.618;25.336;2023-11-19T00:13:47;0.90;;;0.90;;
30462;SDS011;17256;43.618;25.336;2023-11-19T00:16:13;1.80;;;1.10;;
30462;SDS011;17256;43.618;25.336;2023-11-19T00:18:39;1.43;;;1.00;;
30462;SDS011;17256;43.618;25.336;2023-11-19T00:21:05;1.40;;;1.30;;
30462;SDS011;17256;43.618;25.336;2023-11-19T00:23:30;1.10;;;1.07;;
30462;SDS011;17256;43.618;25.336;2023-11-19T00:25:56;7.27;;;3.03;;
30462;SDS011;17256;43.618;25.336;2023-11-19T00:31:13;4.27;;;1.93;;
30462;SDS011;17256;43.618;25.336;2023-11-19T00:33:38;2.20;;;2.00;;
30462;SDS011;17256;43.618;25.336;2023-11-19T00:36:04;1.97;;;1.30;;
30462;SDS011;17256;43.618;25.336;2023-11-19T00:38:30;3.50;;;2.43;;
30462;SDS011;17256;43.618;25.336;2023-11-19T00:40:56;2.27;;;1.67;;
30462;SDS011;17256;43.618;25.336;2023-11-19T00:43:21;3.47;;;1.50;;
30462;SDS011;17256;43.618;25.336;2023-11-19T00:45:47;1.93;;;1.77;;
30462;SDS011;17256;43.618;25.336;2023-11-19T00:48:15;1.77;;;1.67;;
30462;SDS011;17256;43.618;25.336;2023-11-19T00:50:41;1.60;;;1.37;;
30462;SDS011;17256;43.618;25.336;2023-11-19T00:53:09;2.77;;;1.70;;
30462;SDS011;17256;43.618;25.336;2023-11-19T00:55:35;2.07;;;1.27;;
30462;SDS011;17256;43.618;25.336;2023-11-19T00:58:01;1.93;;;1.70;;
30462;SDS011;17256;43.618;25.336;2023-11-19T01:00:28;2.23;;;1.47;;
30462;SDS011;17256;43.618;25.336;2023-11-19T01:02:54;2.07;;;1.50;;
30462;SDS011;17256;43.618;25.336;2023-11-19T01:05:20;1.57;;;1.47;;
30462;SDS011;17256;43.618;25.336;2023-11-19T01:07:49;2.17;;;1.57;;
30462;SDS011;17256;43.618;25.336;2023-11-19T01:10:18;3.13;;;1.50;;
30462;SDS011;17256;43.618;25.336;2023-11-19T01:12:43;2.30;;;1.87;;
30462;SDS011;17256;43.618;25.336;2023-11-19T01:15:09;2.40;;;1.50;;
30462;SDS011;17256;43.618;25.336;2023-11-19T01:17:36;2.93;;;2.23;;
30462;SDS011;17256;43.618;25.336;2023-11-19T01:20:03;2.10;;;1.87;;
30462;SDS011;17256;43.618;25.336;2023-11-19T01:22:32;1.77;;;1.67;;
30462;SDS011;17256;43.618;25.336;2023-11-19T01:24:58;3.17;;;1.90;;
30462;SDS011;17256;43.618;25.336;2023-11-19T01:27:24;2.77;;;2.10;;
30462;SDS011;17256;43.618;25.336;2023-11-19T01:29:50;1.67;;;1.23;;
30462;SDS011;17256;43.618;25.336;2023-11-19T01:32:15;2.27;;;1.67;;
30462;SDS011;17256;43.618;25.336;2023-11-19T01:34:41;1.70;;;1.60;;
30462;SDS011;17256;43.618;25.336;2023-11-19T01:37:06;1.90;;;1.40;;
30462;SDS011;17256;43.618;25.336;2023-11-19T01:39:34;3.10;;;2.37;;
30462;SDS011;17256;43.618;25.336;2023-11-19T01:42:00;1.63;;;1.53;;
30462;SDS011;17256;43.618;25.336;2023-11-19T01:44:25;1.60;;;1.50;;
30462;SDS011;17256;43.618;25.336;2023-11-19T01:46:51;3.07;;;1.40;;
30462;SDS011;17256;43.618;25.336;2023-11-19T01:49:17;2.03;;;1.63;;
30462;SDS011;17256;43.618;25.336;2023-11-19T01:51:45;1.83;;;1.13;;
30462;SDS011;17256;43.618;25.336;2023-11-19T01:54:12;2.10;;;2.00;;
30462;SDS011;17256;43.618;25.336;2023-11-19T01:56:38;2.90;;;1.33;;
30462;SDS011;17256;43.618;25.336;2023-11-19T01:59:06;2.00;;;1.70;;
30462;SDS011;17256;43.618;25.336;2023-11-19T02:01:33;2.47;;;1.30;;
30462;SDS011;17256;43.618;25.336;2023-11-19T02:04:03;1.97;;;1.70;;
30462;SDS011;17256;43.618;25.336;2023-11-19T02:06:29;1.63;;;1.40;;
30462;SDS011;17256;43.618;25.336;2023-11-19T02:08:57;2.97;;;1.67;;
30462;SDS011;17256;43.618;25.336;2023-11-19T02:11:22;2.93;;;2.00;;
30462;SDS011;17256;43.618;25.336;2023-11-19T02:13:49;2.10;;;1.80;;
30462;SDS011;17256;43.618;25.336;2023-11-19T02:16:14;1.60;;;1.50;;
30462;SDS011;17256;43.618;25.336;2023-11-19T02:18:40;1.90;;;1.60;;
30462;SDS011;17256;43.618;25.336;2023-11-19T02:21:06;1.80;;;1.70;;
30462;SDS011;17256;43.618;25.336;2023-11-19T02:23:31;3.83;;;1.87;;
30462;SDS011;17256;43.618;25.336;2023-11-19T02:29:00;3.17;;;1.97;;
30462;SDS011;17256;43.618;25.336;2023-11-19T02:31:25;2.60;;;2.13;;
30462;SDS011;17256;43.618;25.336;2023-11-19T02:33:52;2.43;;;2.20;;
30462;SDS011;17256;43.618;25.336;2023-11-19T02:36:18;2.43;;;1.87;;
30462;SDS011;17256;43.618;25.336;2023-11-19T02:38:43;2.27;;;2.07;;
30462;SDS011;17256;43.618;25.336;2023-11-19T02:41:09;2.90;;;2.10;;
30462;SDS011;17256;43.618;25.336;2023-11-19T02:43:36;2.50;;;2.30;;
30462;SDS011;17256;43.618;25.336;2023-11-19T02:46:03;3.50;;;2.20;;
30462;SDS011;17256;43.618;25.336;2023-11-19T02:48:37;2.10;;;1.83;;
30462;SDS011;17256;43.618;25.336;2023-11-19T02:51:05;1.90;;;1.80;;
30462;SDS011;17256;43.618;25.336;2023-11-19T02:53:34;2.40;;;2.20;;
30462;SDS011;17256;43.618;25.336;2023-11-19T02:56:00;3.70;;;2.37;;
30462;SDS011;17256;43.618;25.336;2023-11-19T02:58:31;2.30;;;2.10;;
30462;SDS011;17256;43.618;25.336;2023-11-19T03:00:57;2.77;;;1.97;;
30462;SDS011;17256;43.618;25.336;2023-11-19T03:03:26;3.30;;;2.53;;
30462;SDS011;17256;43.618;25.336;2023-11-19T03:06:06;2.73;;;2.37;;
30462;SDS011;17256;43.618;25.336;2023-11-19T03:08:35;2.00;;;1.80;;
30462;SDS011;17256;43.618;25.336;2023-11-19T03:11:01;2.83;;;2.53;;
30462;SDS011;17256;43.618;25.336;2023-11-19T03:13:27;1.83;;;1.60;;
30462;SDS011;17256;43.618;25.336;2023-11-19T03:15:52;2.57;;;2.10;;
30462;SDS011;17256;43.618;25.336;2023-11-19T03:18:19;2.40;;;1.97;;
30462;SDS011;17256;43.618;25.336;2023-11-19T03:20:46;3.30;;;2.67;;
30462;SDS011;17256;43.618;25.336;2023-11-19T03:23:13;2.97;;;2.23;;
30462;SDS011;17256;43.618;25.336;2023-11-19T03:25:38;3.47;;;2.83;;
30462;SDS011;17256;43.618;25.336;2023-11-19T03:28:04;2.77;;;2.10;;
30462;SDS011;17256;43.618;25.336;2023-11-19T03:30:30;2.30;;;1.83;;
30462;SDS011;17256;43.618;25.336;2023-11-19T03:32:56;2.33;;;2.13;;
30462;SDS011;17256;43.618;25.336;2023-11-19T03:35:30;3.37;;;2.87;;
30462;SDS011;17256;43.618;25.336;2023-11-19T03:37:56;1.70;;;1.60;;
30462;SDS011;17256;43.618;25.336;2023-11-19T03:40:23;2.23;;;2.03;;
30462;SDS011;17256;43.618;25.336;2023-11-19T03:42:50;3.73;;;1.60;;
30462;SDS011;17256;43.618;25.336;2023-11-19T03:45:15;2.43;;;2.23;;
30462;SDS011;17256;43.618;25.336;2023-11-19T03:47:41;3.30;;;2.57;;
30462;SDS011;17256;43.618;25.336;2023-11-19T03:50:07;2.40;;;2.20;;
30462;SDS011;17256;43.618;25.336;2023-11-19T03:52:36;1.90;;;1.80;;
30462;SDS011;17256;43.618;25.336;2023-11-19T03:57:54;3.07;;;2.83;;
30462;SDS011;17256;43.618;25.336;2023-11-19T04:00:20;3.40;;;3.10;;
30462;SDS011;17256;43.618;25.336;2023-11-19T04:02:46;3.10;;;2.67;;
30462;SDS011;17256;43.618;25.336;2023-11-19T04:05:12;3.90;;;3.53;;
30462;SDS011;17256;43.618;25.336;2023-11-19T04:07:37;2.70;;;2.50;;
30462;SDS011;17256;43.618;25.336;2023-11-19T04:10:03;4.37;;;3.00;;
30462;SDS011;17256;43.618;25.336;2023-11-19T04:12:29;2.30;;;2.10;;
30462;SDS011;17256;43.618;25.336;2023-11-19T04:14:55;2.37;;;2.10;;
30462;SDS011;17256;43.618;25.336;2023-11-19T04:17:21;3.07;;;2.80;;
30462;SDS011;17256;43.618;25.336;2023-11-19T04:19:48;2.70;;;2.40;;
30462;SDS011;17256;43.618;25.336;2023-11-19T04:22:14;2.70;;;2.10;;
30462;SDS011;17256;43.618;25.336;2023-11-19T04:24:39;2.80;;;2.47;;
30462;SDS011;17256;43.618;25.336;2023-11-19T04:27:06;2.50;;;2.30;;
30462;SDS011;17256;43.618;25.336;2023-11-19T04:29:31;2.83;;;2.50;;
30462;SDS011;17256;43.618;25.336;2023-11-19T04:31:57;2.30;;;2.10;;
30462;SDS011;17256;43.618;25.336;2023-11-19T04:34:23;2.33;;;2.13;;
30462;SDS011;17256;43.618;25.336;2023-11-19T04:36:49;2.50;;;2.30;;
30462;SDS011;17256;43.618;25.336;2023-11-19T04:39:14;3.00;;;2.70;;
30462;SDS011;17256;43.618;25.336;2023-11-19T04:41:50;3.17;;;2.87;;
30462;SDS011;17256;43.618;25.336;2023-11-19T04:44:19;2.70;;;2.37;;
30462;SDS011;17256;43.618;25.336;2023-11-19T04:46:45;3.30;;;3.00;;
30462;SDS011;17256;43.618;25.336;2023-11-19T04:49:11;3.77;;;3.37;;
30462;SDS011;17256;43.618;25.336;2023-11-19T04:51:39;2.70;;;2.50;;
30462;SDS011;17256;43.618;25.336;2023-11-19T04:54:05;2.73;;;2.33;;
30462;SDS011;17256;43.618;25.336;2023-11-19T04:56:31;2.97;;;2.50;;
30462;SDS011;17256;43.618;25.336;2023-11-19T04:58:57;3.57;;;2.43;;
30462;SDS011;17256;43.618;25.336;2023-11-19T05:01:22;4.10;;;2.43;;
30462;SDS011;17256;43.618;25.336;2023-11-19T05:03:48;3.23;;;2.57;;
30462;SDS011;17256;43.618;25.336;2023-11-19T05:06:14;4.63;;;2.60;;
30462;SDS011;17256;43.618;25.336;2023-11-19T05:08:40;2.97;;;2.67;;
30462;SDS011;17256;43.618;25.336;2023-11-19T05:11:08;4.20;;;3.20;;
30462;SDS011;17256;43.618;25.336;2023-11-19T05:13:37;3.33;;;3.00;;
30462;SDS011;17256;43.618;25.336;2023-11-19T05:16:03;4.60;;;3.80;;
30462;SDS011;17256;43.618;25.336;2023-11-19T05:18:28;3.77;;;3.37;;
30462;SDS011;17256;43.618;25.336;2023-11-19T05:20:54;3.67;;;3.27;;
30462;SDS011;17256;43.618;25.336;2023-11-19T05:23:19;3.63;;;2.70;;
30462;SDS011;17256;43.618;25.336;2023-11-19T05:25:45;3.83;;;3.53;;
30462;SDS011;17256;43.618;25.336;2023-11-19T05:28:11;3.47;;;3.17;;
30462;SDS011;17256;43.618;25.336;2023-11-19T05:30:36;3.03;;;2.80;;
30462;SDS011;17256;43.618;25.336;2023-11-19T05:33:02;3.40;;;2.90;;
30462;SDS011;17256;43.618;25.336;2023-11-19T05:35:27;4.90;;;3.27;;
30462;SDS011;17256;43.618;25.336;2023-11-19T05:37:53;5.93;;;2.53;;
30462;SDS011;17256;43.618;25.336;2023-11-19T05:40:19;5.50;;;4.60;;
30462;SDS011;17256;43.618;25.336;2023-11-19T05:42:45;4.70;;;3.70;;
30462;SDS011;17256;43.618;25.336;2023-11-19T05:45:11;4.10;;;3.23;;
30462;SDS011;17256;43.618;25.336;2023-11-19T05:47:37;5.47;;;3.87;;
30462;SDS011;17256;43.618;25.336;2023-11-19T05:50:02;4.23;;;3.63;;
30462;SDS011;17256;43.618;25.336;2023-11-19T05:52:31;3.47;;;3.00;;
30462;SDS011;17256;43.618;25.336;2023-11-19T05:55:01;5.20;;;4.13;;
30462;SDS011;17256;43.618;25.336;2023-11-19T05:57:30;7.93;;;3.43;;
30462;SDS011;17256;43.618;25.336;2023-11-19T05:59:55;6.83;;;3.63;;
30462;SDS011;17256;43.618;25.336;2023-11-19T06:02:21;5.73;;;3.93;;
30462;SDS011;17256;43.618;25.336;2023-11-19T06:04:46;4.73;;;3.80;;
30462;SDS011;17256;43.618;25.336;2023-11-19T06:07:13;6.33;;;4.40;;
30462;SDS011;17256;43.618;25.336;2023-11-19T06:09:40;15.70;;;6.97;;
30462;SDS011;17256;43.618;25.336;2023-11-19T06:12:06;5.40;;;4.03;;
30462;SDS011;17256;43.618;25.336;2023-11-19T06:14:32;4.33;;;3.67;;
30462;SDS011;17256;43.618;25.336;2023-11-19T06:16:58;5.17;;;4.00;;
30462;SDS011;17256;43.618;25.336;2023-11-19T06:19:23;3.87;;;3.30;;
30462;SDS011;17256;43.618;25.336;2023-11-19T06:21:52;3.63;;;3.03;;
30462;SDS011;17256;43.618;25.336;2023-11-19T06:24:17;4.80;;;3.57;;
30462;SDS011;17256;43.618;25.336;2023-11-19T06:26:43;4.10;;;3.70;;
30462;SDS011;17256;43.618;25.336;2023-11-19T06:29:19;7.03;;;4.70;;
30462;SDS011;17256;43.618;25.336;2023-11-19T06:31:45;5.77;;;3.87;;
30462;SDS011;17256;43.618;25.336;2023-11-19T06:34:14;6.53;;;4.17;;
30462;SDS011;17256;43.618;25.336;2023-11-19T06:36:39;5.90;;;4.50;;
30462;SDS011;17256;43.618;25.336;2023-11-19T06:39:05;4.47;;;3.47;;
30462;SDS011;17256;43.618;25.336;2023-11-19T06:41:33;6.90;;;4.97;;
30462;SDS011;17256;43.618;25.336;2023-11-19T06:43:58;7.23;;;4.57;;
30462;SDS011;17256;43.618;25.336;2023-11-19T06:46:25;6.80;;;4.70;;
30462;SDS011;17256;43.618;25.336;2023-11-19T06:48:50;5.57;;;4.60;;
30462;SDS011;17256;43.618;25.336;2023-11-19T06:51:16;6.00;;;5.40;;
30462;SDS011;17256;43.618;25.336;2023-11-19T06:53:45;6.43;;;4.43;;
30462;SDS011;17256;43.618;25.336;2023-11-19T06:56:17;6.87;;;5.70;;
30462;SDS011;17256;43.618;25.336;2023-11-19T06:58:46;5.97;;;4.30;;
30462;SDS011;17256;43.618;25.336;2023-11-19T07:01:25;6.20;;;5.53;;
30462;SDS011;17256;43.618;25.336;2023-11-19T07:03:50;6.67;;;5.83;;
30462;SDS011;17256;43.618;25.336;2023-11-19T07:06:16;5.20;;;4.70;;
30462;SDS011;17256;43.618;25.336;2023-11-19T07:08:42;5.67;;;4.90;;
30462;SDS011;17256;43.618;25.336;2023-11-19T07:11:09;5.60;;;4.73;;
30462;SDS011;17256;43.618;25.336;2023-11-19T07:13:37;6.20;;;4.97;;
30462;SDS011;17256;43.618;25.336;2023-11-19T07:16:03;6.27;;;5.07;;
30462;SDS011;17256;43.618;25.336;2023-11-19T07:18:29;6.43;;;5.33;;
30462;SDS011;17256;43.618;25.336;2023-11-19T07:20:55;5.87;;;5.27;;
30462;SDS011;17256;43.618;25.336;2023-11-19T07:23:22;5.40;;;4.90;;
30462;SDS011;17256;43.618;25.336;2023-11-19T07:25:47;6.87;;;5.50;;
30462;SDS011;17256;43.618;25.336;2023-11-19T07:28:15;8.87;;;6.03;;
30462;SDS011;17256;43.618;25.336;2023-11-19T07:30:42;9.37;;;6.00;;
30462;SDS011;17256;43.618;25.336;2023-11-19T07:33:07;6.87;;;5.27;;
30462;SDS011;17256;43.618;25.336;2023-11-19T07:35:33;7.60;;;5.87;;
30462;SDS011;17256;43.618;25.336;2023-11-19T07:37:59;8.43;;;7.30;;
30462;SDS011;17256;43.618;25.336;2023-11-19T07:40:24;8.20;;;6.33;;
30462;SDS011;17256;43.618;25.336;2023-11-19T07:42:50;7.40;;;5.43;;
30462;SDS011;17256;43.618;25.336;2023-11-19T07:45:16;6.80;;;6.10;;
30462;SDS011;17256;43.618;25.336;2023-11-19T07:47:42;7.37;;;6.67;;
30462;SDS011;17256;43.618;25.336;2023-11-19T07:50:11;6.80;;;6.17;;
30462;SDS011;17256;43.618;25.336;2023-11-19T07:52:39;7.23;;;6.13;;
30462;SDS011;17256;43.618;25.336;2023-11-19T07:55:05;6.83;;;5.50;;
30462;SDS011;17256;43.618;25.336;2023-11-19T07:57:31;8.00;;;6.10;;
30462;SDS011;17256;43.618;25.336;2023-11-19T07:59:57;5.47;;;4.97;;
30462;SDS011;17256;43.618;25.336;2023-11-19T08:05:05;6.00;;;5.00;;
30462;SDS011;17256;43.618;25.336;2023-11-19T08:07:31;5.90;;;4.57;;
30462;SDS011;17256;43.618;25.336;2023-11-19T08:09:56;6.97;;;5.60;;
30462;SDS011;17256;43.618;25.336;2023-11-19T08:12:22;5.97;;;5.03;;
30462;SDS011;17256;43.618;25.336;2023-11-19T08:14:48;5.63;;;4.43;;
30462;SDS011;17256;43.618;25.336;2023-11-19T08:17:14;5.17;;;4.70;;
30462;SDS011;17256;43.618;25.336;2023-11-19T08:19:41;9.27;;;5.53;;
30462;SDS011;17256;43.618;25.336;2023-11-19T08:22:06;5.20;;;4.70;;
30462;SDS011;17256;43.618;25.336;2023-11-19T08:24:32;5.37;;;4.87;;
30462;SDS011;17256;43.618;25.336;2023-11-19T08:26:57;5.60;;;5.00;;
30462;SDS011;17256;43.618;25.336;2023-11-19T08:29:23;5.17;;;4.67;;
30462;SDS011;17256;43.618;25.336;2023-11-19T08:31:48;5.27;;;4.63;;
30462;SDS011;17256;43.618;25.336;2023-11-19T08:34:14;5.67;;;5.17;;
30462;SDS011;17256;43.618;25.336;2023-11-19T08:36:40;9.67;;;6.03;;
30462;SDS011;17256;43.618;25.336;2023-11-19T08:39:06;4.80;;;4.33;;
30462;SDS011;17256;43.618;25.336;2023-11-19T08:41:33;5.17;;;4.67;;
30462;SDS011;17256;43.618;25.336;2023-11-19T08:43:59;6.90;;;6.30;;
30462;SDS011;17256;43.618;25.336;2023-11-19T08:46:25;5.43;;;4.93;;
30462;SDS011;17256;43.618;25.336;2023-11-19T08:48:51;6.67;;;5.17;;
30462;SDS011;17256;43.618;25.336;2023-11-19T08:51:17;5.40;;;4.90;;
30462;SDS011;17256;43.618;25.336;2023-11-19T08:53:42;6.97;;;5.87;;
30462;SDS011;17256;43.618;25.336;2023-11-19T08:56:08;5.67;;;5.07;;
30462;SDS011;17256;43.618;25.336;2023-11-19T08:58:33;4.63;;;4.23;;
30462;SDS011;17256;43.618;25.336;2023-11-19T09:00:59;4.83;;;4.33;;
30462;SDS011;17256;43.618;25.336;2023-11-19T09:03:24;5.10;;;4.60;;
30462;SDS011;17256;43.618;25.336;2023-11-19T09:05:55;4.80;;;4.40;;
30462;SDS011;17256;43.618;25.336;2023-11-19T09:08:20;4.83;;;4.33;;
30462;SDS011;17256;43.618;25.336;2023-11-19T09:10:46;4.40;;;4.00;;
30462;SDS011;17256;43.618;25.336;2023-11-19T09:13:11;7.47;;;4.20;;
30462;SDS011;17256;43.618;25.336;2023-11-19T09:15:37;6.90;;;6.20;;
30462;SDS011;17256;43.618;25.336;2023-11-19T09:18:03;5.23;;;4.67;;
30462;SDS011;17256;43.618;25.336;2023-11-19T09:20:29;4.63;;;4.23;;
30462;SDS011;17256;43.618;25.336;2023-11-19T09:23:02;4.43;;;3.90;;
30462;SDS011;17256;43.618;25.336;2023-11-19T09:25:28;6.27;;;4.50;;
30462;SDS011;17256;43.618;25.336;2023-11-19T09:27:54;4.83;;;4.40;;
30462;SDS011;17256;43.618;25.336;2023-11-19T09:30:19;16.23;;;9.57;;
30462;SDS011;17256;43.618;25.336;2023-11-19T09:32:45;9.27;;;7.63;;
30462;SDS011;17256;43.618;25.336;2023-11-19T09:35:11;7.17;;;6.40;;
30462;SDS011;17256;43.618;25.336;2023-11-19T09:37:38;5.80;;;5.13;;
30462;SDS011;17256;43.618;25.336;2023-11-19T09:40:04;8.30;;;7.23;;
30462;SDS011;17256;43.618;25.336;2023-11-19T09:42:31;9.60;;;6.23;;
30462;SDS011;17256;43.618;25.336;2023-11-19T09:45:10;6.20;;;5.60;;
30462;SDS011;17256;43.618;25.336;2023-11-19T09:47:39;6.60;;;5.90;;
30462;SDS011;17256;43.618;25.336;2023-11-19T09:50:05;34.87;;;24.03;;
30462;SDS011;17256;43.618;25.336;2023-11-19T09:52:31;12.50;;;9.40;;
30462;SDS011;17256;43.618;25.336;2023-11-19T09:54:57;16.87;;;10.77;;
30462;SDS011;17256;43.618;25.336;2023-11-19T09:57:22;11.57;;;9.33;;
30462;SDS011;17256;43.618;25.336;2023-11-19T09:59:48;14.07;;;9.60;;
30462;SDS011;17256;43.618;25.336;2023-11-19T10:02:15;5.97;;;5.17;;
30462;SDS011;17256;43.618;25.336;2023-11-19T10:04:42;10.07;;;6.90;;
30462;SDS011;17256;43.618;25.336;2023-11-19T10:07:10;8.33;;;6.40;;
30462;SDS011;17256;43.618;25.336;2023-11-19T10:09:35;10.23;;;6.77;;
30462;SDS011;17256;43.618;25.336;2023-11-19T10:12:01;8.20;;;6.13;;
30462;SDS011;17256;43.618;25.336;2023-11-19T10:14:26;5.33;;;4.20;;
30462;SDS011;17256;43.618;25.336;2023-11-19T10:16:54;9.03;;;5.30;;
30462;SDS011;17256;43.618;25.336;2023-11-19T10:19:21;5.70;;;4.60;;
30462;SDS011;17256;43.618;25.336;2023-11-19T10:21:46;5.50;;;4.93;;
30462;SDS011;17256;43.618;25.336;2023-11-19T10:24:12;4.97;;;4.43;;
30462;SDS011;17256;43.618;25.336;2023-11-19T10:26:38;5.33;;;4.27;;
30462;SDS011;17256;43.618;25.336;2023-11-19T10:29:03;4.17;;;3.77;;
30462;SDS011;17256;43.618;25.336;2023-11-19T10:31:29;6.27;;;5.67;;
30462;SDS011;17256;43.618;25.336;2023-11-19T10:33:55;8.67;;;5.30;;
30462;SDS011;17256;43.618;25.336;2023-11-19T10:36:21;5.17;;;4.50;;
30462;SDS011;17256;43.618;25.336;2023-11-19T10:38:55;5.20;;;4.70;;
30462;SDS011;17256;43.618;25.336;2023-11-19T10:41:32;5.00;;;4.50;;
30462;SDS011;17256;43.618;25.336;2023-11-19T10:43:58;4.87;;;4.37;;
30462;SDS011;17256;43.618;25.336;2023-11-19T10:46:35;5.10;;;4.60;;
30462;SDS011;17256;43.618;25.336;2023-11-19T10:49:03;6.47;;;4.60;;
30462;SDS011;17256;43.618;25.336;2023-11-19T10:51:28;5.57;;;4.40;;
30462;SDS011;17256;43.618;25.336;2023-11-19T10:53:54;5.10;;;4.70;;
30462;SDS011;17256;43.618;25.336;2023-11-19T10:56:26;5.33;;;4.83;;
30462;SDS011;17256;43.618;25.336;2023-11-19T10:58:55;7.70;;;6.93;;
30462;SDS011;17256;43.618;25.336;2023-11-19T11:01:24;10.87;;;8.63;;
30462;SDS011;17256;43.618;25.336;2023-11-19T11:03:59;8.43;;;6.60;;
30462;SDS011;17256;43.618;25.336;2023-11-19T11:06:26;7.70;;;6.90;;
30462;SDS011;17256;43.618;25.336;2023-11-19T11:08:54;6.83;;;5.27;;
30462;SDS011;17256;43.618;25.336;2023-11-19T11:11:20;7.57;;;5.53;;
30462;SDS011;17256;43.618;25.336;2023-11-19T11:16:20;5.47;;;4.97;;
30462;SDS011;17256;43.618;25.336;2023-11-19T11:18:47;6.73;;;5.50;;
30462;SDS011;17256;43.618;25.336;2023-11-19T11:21:15;17.57;;;13.90;;
30462;SDS011;17256;43.618;25.336;2023-11-19T11:29:48;6.70;;;6.00;;
30462;SDS011;17256;43.618;25.336;2023-11-19T11:32:34;8.33;;;7.60;;
30462;SDS011;17256;43.618;25.336;2023-11-19T11:38:16;4.90;;;4.50;;
30462;SDS011;17256;43.618;25.336;2023-11-19T11:43:52;7.80;;;7.10;;
30462;SDS011;17256;43.618;25.336;2023-11-19T11:49:07;6.33;;;5.73;;
30462;SDS011;17256;43.618;25.336;2023-11-19T11:54:10;6.27;;;5.63;;
30462;SDS011;17256;43.618;25.336;2023-11-19T11:59:37;6.13;;;5.53;;
30462;SDS011;17256;43.618;25.336;2023-11-19T12:02:07;6.07;;;5.03;;
30462;SDS011;17256;43.618;25.336;2023-11-19T12:04:34;6.90;;;6.20;;
30462;SDS011;17256;43.618;25.336;2023-11-19T12:09:31;6.17;;;5.57;;
30462;SDS011;17256;43.618;25.336;2023-11-19T12:18:09;9.53;;;8.57;;
30462;SDS011;17256;43.618;25.336;2023-11-19T12:20:17;6.37;;;5.77;;
30462;SDS011;17256;43.618;25.336;2023-11-19T12:22:45;9.60;;;5.40;;
30462;SDS011;17256;43.618;25.336;2023-11-19T12:25:12;5.30;;;4.80;;
30462;SDS011;17256;43.618;25.336;2023-11-19T12:27:48;5.27;;;4.77;;
30462;SDS011;17256;43.618;25.336;2023-11-19T12:30:24;5.00;;;4.60;;
30462;SDS011;17256;43.618;25.336;2023-11-19T12:32:51;4.20;;;3.80;;
30462;SDS011;17256;43.618;25.336;2023-11-19T12:35:20;7.20;;;5.10;;
30462;SDS011;17256;43.618;25.336;2023-11-19T12:37:47;3.90;;;3.50;;
30462;SDS011;17256;43.618;25.336;2023-11-19T12:40:14;4.50;;;4.10;;
30462;SDS011;17256;43.618;25.336;2023-11-19T12:42:40;5.63;;;4.90;;
30462;SDS011;17256;43.618;25.336;2023-11-19T12:45:06;21.40;;;14.50;;
30462;SDS011;17256;43.618;25.336;2023-11-19T12:47:33;12.73;;;11.37;;
30462;SDS011;17256;43.618;25.336;2023-11-19T12:49:59;49.93;;;36.93;;
30462;SDS011;17256;43.618;25.336;2023-11-19T12:52:24;23.43;;;20.93;;
30462;SDS011;17256;43.618;25.336;2023-11-19T12:54:50;14.17;;;12.80;;
30462;SDS011;17256;43.618;25.336;2023-11-19T12:57:16;13.67;;;12.37;;
30462;SDS011;17256;43.618;25.336;2023-11-19T12:59:53;14.57;;;9.17;;
30462;SDS011;17256;43.618;25.336;2023-11-19T13:02:20;12.20;;;9.63;;
30462;SDS011;17256;43.618;25.336;2023-11-19T13:04:45;10.23;;;8.13;;
30462;SDS011;17256;43.618;25.336;2023-11-19T13:07:11;8.53;;;6.67;;
30462;SDS011;17256;43.618;25.336;2023-11-19T13:09:37;6.67;;;6.00;;
30462;SDS011;17256;43.618;25.336;2023-11-19T13:12:11;7.30;;;6.33;;
30462;SDS011;17256;43.618;25.336;2023-11-19T13:14:38;7.77;;;7.07;;
30462;SDS011;17256;43.618;25.336;2023-11-19T13:17:07;6.07;;;5.27;;
30462;SDS011;17256;43.618;25.336;2023-11-19T13:19:33;4.87;;;4.37;;
30462;SDS011;17256;43.618;25.336;2023-11-19T13:21:59;5.50;;;5.00;;
30462;SDS011;17256;43.618;25.336;2023-11-19T13:24:24;5.60;;;5.10;;
30462;SDS011;17256;43.618;25.336;2023-11-19T13:26:50;6.10;;;5.50;;
30462;SDS011;17256;43.618;25.336;2023-11-19T13:29:16;5.33;;;4.83;;
30462;SDS011;17256;43.618;25.336;2023-11-19T13:31:41;6.83;;;6.20;;
30462;SDS011;17256;43.618;25.336;2023-11-19T13:34:07;5.90;;;5.40;;
30462;SDS011;17256;43.618;25.336;2023-11-19T13:36:33;11.23;;;6.60;;
30462;SDS011;17256;43.618;25.336;2023-11-19T13:38:59;4.57;;;3.83;;
30462;SDS011;17256;43.618;25.336;2023-11-19T13:41:28;10.93;;;8.00;;
30462;SDS011;17256;43.618;25.336;2023-11-19T13:43:53;87.33;;;41.80;;
30462;SDS011;17256;43.618;25.336;2023-11-19T13:46:20;68.50;;;29.33;;
30462;SDS011;17256;43.618;25.336;2023-11-19T13:48:46;62.60;;;28.00;;
30462;SDS011;17256;43.618;25.336;2023-11-19T13:51:11;23.83;;;19.77;;
30462;SDS011;17256;43.618;25.336;2023-11-19T13:53:37;12.53;;;10.23;;
30462;SDS011;17256;43.618;25.336;2023-11-19T13:56:02;10.73;;;9.80;;
30462;SDS011;17256;43.618;25.336;2023-11-19T13:58:28;6.87;;;6.27;;
30462;SDS011;17256;43.618;25.336;2023-11-19T14:00:54;6.73;;;6.07;;
30462;SDS011;17256;43.618;25.336;2023-11-19T14:03:19;8.67;;;7.87;;
30462;SDS011;17256;43.618;25.336;2023-11-19T14:05:45;7.47;;;6.53;;
30462;SDS011;17256;43.618;25.336;2023-11-19T14:08:11;7.30;;;6.57;;
30462;SDS011;17256;43.618;25.336;2023-11-19T14:10:37;10.27;;;8.17;;
30462;SDS011;17256;43.618;25.336;2023-11-19T14:13:05;11.00;;;8.87;;
30462;SDS011;17256;43.618;25.336;2023-11-19T14:15:34;8.57;;;7.70;;
30462;SDS011;17256;43.618;25.336;2023-11-19T14:18:00;12.60;;;8.70;;
30462;SDS011;17256;43.618;25.336;2023-11-19T14:20:27;10.80;;;8.50;;
30462;SDS011;17256;43.618;25.336;2023-11-19T14:22:52;7.90;;;7.10;;
30462;SDS011;17256;43.618;25.336;2023-11-19T14:25:18;10.20;;;7.87;;
30462;SDS011;17256;43.618;25.336;2023-11-19T14:27:43;10.93;;;8.90;;
30462;SDS011;17256;43.618;25.336;2023-11-19T14:30:11;8.40;;;7.40;;
30462;SDS011;17256;43.618;25.336;2023-11-19T14:32:41;9.23;;;8.13;;
30462;SDS011;17256;43.618;25.336;2023-11-19T14:35:09;21.27;;;13.10;;
30462;SDS011;17256;43.618;25.336;2023-11-19T14:37:35;13.33;;;9.63;;
30462;SDS011;17256;43.618;25.336;2023-11-19T14:40:01;48.60;;;20.87;;
30462;SDS011;17256;43.618;25.336;2023-11-19T14:42:31;17.97;;;10.40;;
30462;SDS011;17256;43.618;25.336;2023-11-19T14:44:56;9.40;;;7.63;;
30462;SDS011;17256;43.618;25.336;2023-11-19T14:47:22;12.27;;;9.63;;
30462;SDS011;17256;43.618;25.336;2023-11-19T14:49:48;9.97;;;8.53;;
30462;SDS011;17256;43.618;25.336;2023-11-19T14:52:14;10.80;;;9.70;;
30462;SDS011;17256;43.618;25.336;2023-11-19T14:54:40;12.40;;;11.00;;
30462;SDS011;17256;43.618;25.336;2023-11-19T14:57:06;26.47;;;20.10;;
30462;SDS011;17256;43.618;25.336;2023-11-19T14:59:33;23.53;;;20.97;;
30462;SDS011;17256;43.618;25.336;2023-11-19T15:01:59;17.03;;;14.20;;
30462;SDS011;17256;43.618;25.336;2023-11-19T15:04:28;15.50;;;13.97;;
30462;SDS011;17256;43.618;25.336;2023-11-19T15:06:58;10.73;;;8.33;;
30462;SDS011;17256;43.618;25.336;2023-11-19T15:09:25;8.97;;;8.07;;
30462;SDS011;17256;43.618;25.336;2023-11-19T15:11:53;11.30;;;10.13;;